Time;durP1;ratioP1;P1;durP2;ratioP2;P2;SDS_P1;SDS_P2;PMS_P1;PMS_P2;Temp;Humidity;BMP_temperature;BMP_pressure;BME280_temperature;BME280_humidity;BME280_pressure;Samples;Min_cycle;Max_cycle;Signal;HPM_P1;HPM_P2
2020/12/01 00:02:04;;;;;;;17.10;9.35;;;4.50;99.90;;;;;;5094651;28;20175;-79
2020/12/01 00:04:29;;;;;;;20.70;8.67;;;4.50;99.90;;;;;;5095436;28;20661;-78
2020/12/01 00:06:55;;;;;;;15.40;7.80;;;4.60;99.90;;;;;;5094630;28;20912;-78
2020/12/01 00:09:21;;;;;;;13.97;8.10;;;4.50;99.90;;;;;;5095628;28;20199;-78
2020/12/01 00:11:46;;;;;;;20.90;9.70;;;4.50;99.90;;;;;;5095302;28;20250;-78
2020/12/01 00:14:12;;;;;;;11.30;7.50;;;4.50;99.90;;;;;;5097355;28;20211;-78
2020/12/01 00:16:38;;;;;;;16.80;10.23;;;4.60;99.90;;;;;;5101280;28;20172;-78
2020/12/01 00:19:03;;;;;;;20.70;8.67;;;4.60;99.90;;;;;;5082333;28;20392;-78
2020/12/01 00:21:29;;;;;;;12.30;8.47;;;4.60;99.90;;;;;;5105099;28;20250;-77
2020/12/01 00:23:55;;;;;;;15.37;8.83;;;4.60;99.90;;;;;;5110636;28;20167;-78
2020/12/01 00:26:20;;;;;;;12.60;8.07;;;4.70;99.90;;;;;;5091758;28;20176;-78
2020/12/01 00:28:48;;;;;;;14.90;8.57;;;4.60;99.90;;;;;;5101809;28;20541;-79
2020/12/01 00:31:14;;;;;;;15.35;8.95;;;4.50;99.90;;;;;;5099424;28;20646;-78
2020/12/01 00:33:40;;;;;;;17.88;8.88;;;4.50;99.90;;;;;;5099566;28;20217;-77
2020/12/01 00:36:06;;;;;;;10.02;6.55;;;4.60;99.90;;;;;;5099582;28;20187;-77
2020/12/01 00:38:32;;;;;;;16.30;10.02;;;4.60;99.90;;;;;;5099276;28;20164;-77
2020/12/01 00:40:57;;;;;;;17.37;9.20;;;4.60;99.90;;;;;;5099770;28;20185;-78
2020/12/01 00:43:23;;;;;;;12.20;7.53;;;4.60;99.90;;;;;;5099571;28;20174;-78
2020/12/01 00:45:49;;;;;;;16.33;8.03;;;4.70;99.90;;;;;;5099229;28;20404;-77
2020/12/01 00:48:15;;;;;;;15.40;8.67;;;4.60;99.90;;;;;;5096078;28;20222;-77
2020/12/01 00:50:41;;;;;;;16.65;9.10;;;4.60;99.90;;;;;;5097178;28;20171;-77
2020/12/01 00:53:07;;;;;;;15.48;9.50;;;4.60;99.90;;;;;;5097442;28;20256;-78
2020/12/01 00:55:33;;;;;;;21.80;9.88;;;4.60;99.90;;;;;;5098005;28;20191;-77
2020/12/01 00:57:59;;;;;;;12.20;7.90;;;4.60;99.90;;;;;;5100187;28;20199;-77
2020/12/01 01:00:30;;;;;;;15.37;8.63;;;4.70;99.90;;;;;;5097862;28;20380;-77
2020/12/01 01:02:56;;;;;;;12.98;7.13;;;4.50;99.90;;;;;;5099851;28;20724;-78
2020/12/01 01:05:25;;;;;;;12.70;8.50;;;4.70;99.90;;;;;;5081750;28;20200;-78
2020/12/01 01:07:50;;;;;;;15.05;9.25;;;4.70;99.90;;;;;;5098541;28;20414;-77
2020/12/01 01:10:20;;;;;;;17.00;8.50;;;4.70;99.90;;;;;;5078628;28;20179;-77
2020/12/01 01:12:46;;;;;;;17.02;9.45;;;4.70;99.90;;;;;;5097425;28;20199;-78
2020/12/01 01:15:12;;;;;;;14.07;9.40;;;4.60;99.90;;;;;;5096844;28;20878;-77
2020/12/01 01:17:38;;;;;;;15.23;8.93;;;4.80;99.90;;;;;;5100001;28;20170;-76
2020/12/01 01:20:05;;;;;;;17.90;9.40;;;4.60;99.90;;;;;;5108463;28;20171;-77
2020/12/01 01:22:30;;;;;;;15.30;9.70;;;4.70;99.90;;;;;;5096205;28;20179;-76
2020/12/01 01:24:56;;;;;;;19.30;10.37;;;4.80;99.90;;;;;;5095936;28;20195;-77
2020/12/01 01:27:22;;;;;;;13.43;8.47;;;4.60;99.90;;;;;;5099057;28;20189;-78
2020/12/01 01:29:50;;;;;;;14.83;8.67;;;4.70;99.90;;;;;;5097896;28;20835;-77
2020/12/01 01:32:16;;;;;;;17.48;8.68;;;4.50;99.90;;;;;;5097827;28;20171;-78
2020/12/01 01:34:42;;;;;;;19.57;10.67;;;4.50;99.90;;;;;;5079771;28;20210;-77
2020/12/01 01:37:07;;;;;;;16.67;10.00;;;4.70;99.90;;;;;;5098600;28;20171;-78
2020/12/01 01:39:33;;;;;;;14.40;9.07;;;4.70;99.90;;;;;;5081225;28;20171;-77
2020/12/01 01:41:59;;;;;;;15.70;8.43;;;4.80;99.90;;;;;;5098313;28;20255;-78
2020/12/01 01:44:33;;;;;;;17.58;8.82;;;4.70;99.90;;;;;;5098726;28;20184;-78
2020/12/01 01:47:14;;;;;;;14.65;9.68;;;4.70;99.90;;;;;;5098629;28;20173;-76
2020/12/01 01:49:51;;;;;;;17.58;9.65;;;4.70;99.90;;;;;;5099094;28;20171;-78
2020/12/01 01:52:37;;;;;;;17.58;8.05;;;4.80;99.90;;;;;;5097479;28;20240;-78
2020/12/01 01:55:25;;;;;;;13.82;8.85;;;4.70;99.90;;;;;;5098861;28;20195;-78
2020/12/01 01:57:55;;;;;;;15.40;8.75;;;4.70;99.90;;;;;;5100062;28;20160;-78
2020/12/01 02:00:59;;;;;;;12.63;8.68;;;4.60;99.90;;;;;;5100468;28;20170;-78
2020/12/01 02:03:47;;;;;;;13.25;8.55;;;4.60;99.90;;;;;;5100250;28;20651;-78
2020/12/01 02:06:18;;;;;;;19.42;9.15;;;4.70;99.90;;;;;;5097322;28;20172;-77
2020/12/01 02:08:47;;;;;;;16.02;8.98;;;4.80;99.90;;;;;;5096525;28;20220;-78
2020/12/01 02:11:14;;;;;;;15.20;8.88;;;4.70;99.90;;;;;;5097280;28;20180;-78
2020/12/01 02:13:58;;;;;;;16.17;9.02;;;4.70;99.90;;;;;;5097637;28;20204;-78
2020/12/01 02:16:24;;;;;;;17.83;10.27;;;4.70;99.90;;;;;;5097459;28;20159;-78
2020/12/01 02:18:52;;;;;;;12.60;8.87;;;4.80;99.90;;;;;;5097895;28;20253;-79
2020/12/01 02:21:39;;;;;;;16.83;8.77;;;4.70;99.90;;;;;;5096912;28;20860;-78
2020/12/01 02:24:15;;;;;;;16.40;9.23;;;4.80;99.90;;;;;;5098442;28;20199;-78
2020/12/01 02:26:42;;;;;;;15.98;9.07;;;4.70;99.90;;;;;;5098272;28;20187;-78
2020/12/01 02:29:18;;;;;;;19.30;9.90;;;4.60;99.90;;;;;;5096432;28;20526;-78
2020/12/01 02:31:44;;;;;;;16.35;9.95;;;4.60;99.90;;;;;;5097631;28;20578;-78
2020/12/01 02:34:23;;;;;;;;;;;;;;;;;;;;;
2020/12/01 02:36:52;;;;;;;14.88;8.85;;;4.70;99.90;;;;;;5096340;28;20561;-78
2020/12/01 02:39:22;;;;;;;19.42;9.38;;;4.60;99.90;;;;;;5079354;28;20201;-78
2020/12/01 02:41:49;;;;;;;19.50;10.00;;;4.60;99.90;;;;;;5095930;28;20224;-78
2020/12/01 02:44:14;;;;;;;15.32;9.98;;;4.50;99.90;;;;;;5096004;28;20199;-78
2020/12/01 02:46:40;;;;;;;19.40;9.53;;;4.60;99.90;;;;;;5079082;28;20182;-78
2020/12/01 02:49:07;;;;;;;12.43;7.90;;;4.70;99.90;;;;;;5079678;28;20278;-78
2020/12/01 02:51:34;;;;;;;15.93;9.13;;;4.60;99.90;;;;;;5096614;28;20182;-78
2020/12/01 02:54:00;;;;;;;14.68;9.43;;;4.70;99.90;;;;;;5097318;28;20700;-79
2020/12/01 02:56:26;;;;;;;19.25;9.35;;;4.80;99.90;;;;;;5095766;28;20167;-78
2020/12/01 02:58:52;;;;;;;17.60;9.55;;;4.80;99.90;;;;;;5094421;28;20171;-78
2020/12/01 03:01:18;;;;;;;16.97;9.47;;;4.70;99.90;;;;;;5093106;28;20164;-78
2020/12/01 03:03:44;;;;;;;20.33;10.57;;;4.70;99.90;;;;;;5094022;28;20644;-77
2020/12/01 03:06:15;;;;;;;19.88;11.18;;;4.70;99.90;;;;;;5097581;28;20689;-78
2020/12/01 03:08:41;;;;;;;16.65;10.52;;;4.80;99.90;;;;;;5096973;28;20280;-77
2020/12/01 03:11:09;;;;;;;19.33;10.05;;;4.70;99.90;;;;;;5096819;28;20172;-78
2020/12/01 03:13:35;;;;;;;16.50;9.57;;;4.70;99.90;;;;;;5095419;28;20245;-77
2020/12/01 03:16:18;;;;;;;16.10;9.38;;;4.70;99.90;;;;;;5078397;28;20226;-78
2020/12/01 03:18:45;;;;;;;19.67;9.70;;;4.70;99.90;;;;;;5095243;28;20258;-77
2020/12/01 03:21:14;;;;;;;19.98;11.05;;;4.80;99.90;;;;;;5096674;28;20495;-77
2020/12/01 03:23:40;;;;;;;20.05;10.93;;;4.80;99.90;;;;;;5095745;28;20171;-77
2020/12/01 03:26:07;;;;;;;19.98;9.63;;;4.70;99.90;;;;;;5093717;28;20197;-77
2020/12/01 03:28:33;;;;;;;17.58;9.60;;;4.60;99.90;;;;;;5095182;28;20653;-77
2020/12/01 03:30:59;;;;;;;19.77;10.40;;;4.80;99.90;;;;;;5094633;28;20245;-78
2020/12/01 03:33:25;;;;;;;16.37;9.33;;;4.70;99.90;;;;;;5093437;28;20220;-77
2020/12/01 03:35:51;;;;;;;24.38;12.43;;;4.80;99.90;;;;;;5092222;28;20478;-77
2020/12/01 03:38:17;;;;;;;21.58;10.40;;;4.70;99.90;;;;;;5093721;28;20168;-77
2020/12/01 03:40:43;;;;;;;16.50;9.03;;;4.70;99.90;;;;;;5093364;28;20251;-77
2020/12/01 03:43:09;;;;;;;20.05;10.95;;;4.80;99.90;;;;;;5093448;28;20258;-77
2020/12/01 03:45:35;;;;;;;16.45;10.65;;;4.80;99.90;;;;;;5096846;28;20195;-78
2020/12/01 03:48:01;;;;;;;18.20;10.97;;;4.80;99.90;;;;;;5095321;28;20228;-78
2020/12/01 03:50:30;;;;;;;16.95;10.23;;;4.70;99.90;;;;;;5096274;28;20182;-78
2020/12/01 03:52:57;;;;;;;22.85;11.93;;;4.80;99.90;;;;;;5096169;28;20229;-78
2020/12/01 03:55:24;;;;;;;21.65;11.40;;;4.70;99.90;;;;;;5094777;28;20196;-77
2020/12/01 03:57:51;;;;;;;21.17;11.30;;;4.80;99.90;;;;;;5077917;28;20171;-77
2020/12/01 04:00:19;;;;;;;21.70;11.23;;;4.70;99.90;;;;;;5095496;28;20167;-77
2020/12/01 04:02:45;;;;;;;22.25;11.43;;;4.70;99.90;;;;;;5100561;28;20194;-77
2020/12/01 04:05:12;;;;;;;26.52;12.20;;;4.70;99.90;;;;;;5089338;28;20191;-77
2020/12/01 04:07:38;;;;;;;20.48;12.60;;;4.80;99.90;;;;;;5103855;28;20262;-78
2020/12/01 04:10:05;;;;;;;18.88;10.93;;;4.70;99.90;;;;;;5094752;28;20167;-78
2020/12/01 04:12:31;;;;;;;18.52;11.05;;;4.70;99.90;;;;;;5095532;28;20172;-78
2020/12/01 04:14:57;;;;;;;24.85;11.85;;;4.70;99.90;;;;;;5094926;28;20183;-77
2020/12/01 04:17:23;;;;;;;23.53;13.17;;;4.70;99.90;;;;;;5077415;28;20740;-77
2020/12/01 04:19:50;;;;;;;22.50;12.45;;;4.70;99.90;;;;;;5094035;28;20395;-78
2020/12/01 04:22:16;;;;;;;24.10;11.95;;;4.80;99.90;;;;;;5093918;28;20189;-78
2020/12/01 04:24:42;;;;;;;24.52;10.50;;;4.70;99.90;;;;;;5095564;28;20213;-77
2020/12/01 04:27:09;;;;;;;21.60;11.50;;;4.70;99.90;;;;;;5096592;28;20168;-78
2020/12/01 04:29:35;;;;;;;17.05;10.60;;;4.80;99.90;;;;;;5095215;28;20746;-78
2020/12/01 04:32:01;;;;;;;28.17;14.45;;;4.70;99.90;;;;;;5096129;28;20638;-78
2020/12/01 04:34:27;;;;;;;28.30;14.07;;;4.70;99.90;;;;;;5078790;28;20218;-78
2020/12/01 04:36:52;;;;;;;27.30;13.37;;;4.70;99.90;;;;;;5096750;28;20686;-79
2020/12/01 04:39:18;;;;;;;26.60;12.63;;;4.90;99.90;;;;;;5094564;28;20172;-78
2020/12/01 04:41:44;;;;;;;23.80;12.47;;;4.80;99.90;;;;;;5094548;28;20167;-78
2020/12/01 04:44:36;;;;;;;18.53;10.70;;;4.80;99.90;;;;;;5093725;28;20202;-77
2020/12/01 04:47:07;;;;;;;22.85;13.25;;;4.80;99.90;;;;;;5092890;28;20203;-77
2020/12/01 04:49:41;;;;;;;20.02;11.43;;;4.80;99.90;;;;;;5093422;28;20167;-77
2020/12/01 04:52:13;;;;;;;24.58;12.50;;;4.70;99.90;;;;;;5092765;28;20237;-77
2020/12/01 04:54:58;;;;;;;23.85;13.38;;;4.80;99.90;;;;;;5092778;28;20260;-77
2020/12/01 04:58:05;;;;;;;24.00;13.90;;;4.80;99.90;;;;;;5091652;28;20172;-77
2020/12/01 05:00:31;;;;;;;24.38;11.02;;;4.90;99.90;;;;;;5073867;28;20260;-77
2020/12/01 05:03:08;;;;;;;25.33;13.93;;;4.80;99.90;;;;;;5096537;28;20163;-76
2020/12/01 05:08:30;;;;;;;27.45;13.57;;;4.80;99.90;;;;;;5097170;28;20172;-77
2020/12/01 05:10:59;;;;;;;26.58;12.68;;;4.80;99.90;;;;;;5096548;28;20171;-77
2020/12/01 05:13:31;;;;;;;33.53;15.27;;;4.70;99.90;;;;;;5097192;28;20260;-78
2020/12/01 05:16:07;;;;;;;26.10;14.13;;;4.80;99.90;;;;;;5096882;28;20188;-78
2020/12/01 05:18:33;;;;;;;25.17;12.20;;;4.80;99.90;;;;;;5097896;28;20163;-77
2020/12/01 05:21:03;;;;;;;27.38;15.38;;;4.60;99.90;;;;;;5097106;28;20202;-78
2020/12/01 05:23:44;;;;;;;29.38;14.02;;;4.70;99.90;;;;;;5098700;28;20224;-77
2020/12/01 05:26:13;;;;;;;25.48;13.95;;;4.80;99.90;;;;;;5113043;28;20174;-76
2020/12/01 05:28:46;;;;;;;26.05;15.15;;;4.70;99.90;;;;;;5101363;28;20175;-77
2020/12/01 05:31:13;;;;;;;21.73;12.43;;;4.70;99.90;;;;;;5115696;28;20586;-77
2020/12/01 05:33:38;;;;;;;27.65;14.57;;;4.80;99.90;;;;;;5107740;28;20194;-77
2020/12/01 05:36:17;;;;;;;32.33;14.47;;;4.80;99.90;;;;;;5095702;28;20682;-78
2020/12/01 05:38:43;;;;;;;24.17;13.40;;;4.60;99.90;;;;;;5096388;28;20524;-77
2020/12/01 05:41:37;;;;;;;26.65;13.95;;;4.70;99.90;;;;;;5109023;28;20215;-77
2020/12/01 05:44:17;;;;;;;25.42;13.93;;;4.70;99.90;;;;;;5110392;28;20206;-78
2020/12/01 05:47:00;;;;;;;28.85;15.45;;;4.70;99.90;;;;;;5097474;28;20234;-76
2020/12/01 05:49:43;;;;;;;26.98;14.98;;;4.80;99.90;;;;;;5101618;28;20174;-77
2020/12/01 05:52:18;;;;;;;24.33;13.70;;;4.70;99.90;;;;;;5114927;28;20155;-77
2020/12/01 05:55:02;;;;;;;26.92;14.40;;;4.70;99.90;;;;;;5116180;28;20787;-77
2020/12/01 05:57:28;;;;;;;22.85;12.93;;;4.90;99.90;;;;;;5106744;28;20243;-77
2020/12/01 05:59:57;;;;;;;24.98;14.50;;;4.80;99.90;;;;;;5111823;28;20174;-76
2020/12/01 06:02:37;;;;;;;25.13;14.75;;;4.70;99.90;;;;;;5111810;28;20163;-77
2020/12/01 06:05:04;;;;;;;25.10;13.90;;;4.70;99.90;;;;;;5094533;28;20553;-77
2020/12/01 06:07:30;;;;;;;28.98;14.52;;;4.70;99.90;;;;;;5096150;28;20183;-77
2020/12/01 06:10:01;;;;;;;31.50;16.93;;;4.60;99.90;;;;;;5104297;28;20171;-77
2020/12/01 06:12:51;;;;;;;31.52;16.90;;;4.70;99.90;;;;;;5115181;28;20178;-77
2020/12/01 06:15:20;;;;;;;27.40;15.15;;;4.70;99.90;;;;;;5111737;28;20205;-77
2020/12/01 06:17:58;;;;;;;23.92;13.20;;;4.60;99.90;;;;;;5114478;28;20231;-77
2020/12/01 06:21:04;;;;;;;26.65;14.77;;;4.60;99.90;;;;;;5097500;28;20167;-77
2020/12/01 06:23:42;;;;;;;26.63;15.02;;;4.60;99.90;;;;;;5064724;28;20266;-76
2020/12/01 06:26:41;;;;;;;32.92;15.60;;;4.70;99.90;;;;;;5092592;28;20191;-77
2020/12/01 06:29:31;;;;;;;25.88;13.30;;;4.60;99.90;;;;;;5094324;28;20187;-77
2020/12/01 06:32:34;;;;;;;29.33;14.05;;;4.60;99.90;;;;;;5093512;28;20159;-77
2020/12/01 06:35:37;;;;;;;32.67;14.55;;;4.50;99.90;;;;;;5097863;28;20207;-78
2020/12/01 06:38:12;;;;;;;29.00;15.35;;;4.70;99.90;;;;;;5098013;28;20178;-79
2020/12/01 06:40:58;;;;;;;23.33;11.82;;;4.60;99.90;;;;;;5097177;28;20167;-78
2020/12/01 06:43:30;;;;;;;26.05;13.57;;;4.70;99.90;;;;;;5112961;28;20182;-78
2020/12/01 06:45:58;;;;;;;25.77;14.05;;;4.70;99.90;;;;;;5112312;28;20194;-79
2020/12/01 06:48:38;;;;;;;28.23;13.82;;;4.70;99.90;;;;;;5116360;28;20194;-79
2020/12/01 06:51:08;;;;;;;30.60;14.43;;;4.70;99.90;;;;;;5116805;28;20181;-80
2020/12/01 06:53:36;;;;;;;25.92;15.15;;;4.70;99.90;;;;;;5119366;28;20285;-78
2020/12/01 06:56:04;;;;;;;28.48;14.20;;;4.70;99.90;;;;;;5116533;28;20198;-79
2020/12/01 06:58:35;;;;;;;28.33;14.35;;;4.60;99.90;;;;;;5117926;28;20158;-78
2020/12/01 07:01:06;;;;;;;24.88;13.27;;;4.60;99.90;;;;;;5103088;28;20170;-79
2020/12/01 07:03:31;;;;;;;27.65;13.60;;;4.70;99.90;;;;;;5107145;28;20176;-78
2020/12/01 07:06:21;;;;;;;27.30;13.97;;;4.60;99.90;;;;;;5097634;28;20197;-78
2020/12/01 07:08:48;;;;;;;32.47;14.05;;;4.70;99.90;;;;;;5111390;28;20206;-77
2020/12/01 07:11:25;;;;;;;28.90;12.48;;;4.80;99.90;;;;;;5115143;28;20194;-77
2020/12/01 07:14:21;;;;;;;30.13;14.68;;;5.10;99.90;;;;;;5095577;28;20734;-77
2020/12/01 07:16:48;;;;;;;26.88;14.02;;;5.40;99.90;;;;;;5072614;28;20289;-76
2020/12/01 07:19:36;;;;;;;23.30;12.57;;;5.70;99.90;;;;;;5093351;28;20573;-76
2020/12/01 07:22:12;;;;;;;32.38;13.40;;;6.00;99.90;;;;;;5092548;28;20168;-75
2020/12/01 07:24:44;;;;;;;27.70;15.35;;;6.10;99.90;;;;;;5112649;28;20186;-75
2020/12/01 07:27:37;;;;;;;35.65;15.88;;;6.10;99.90;;;;;;5111983;28;20546;-76
2020/12/01 07:30:25;;;;;;;27.80;13.80;;;6.10;99.90;;;;;;5112023;28;20175;-75
2020/12/01 07:33:05;;;;;;;24.70;13.43;;;6.10;99.90;;;;;;5111417;28;20212;-76
2020/12/01 07:35:47;;;;;;;36.00;13.80;;;6.00;99.90;;;;;;5113072;27;20220;-77
2020/12/01 07:38:35;;;;;;;26.27;13.15;;;6.20;99.90;;;;;;5091707;28;20175;-76
2020/12/01 07:41:23;;;;;;;32.70;15.05;;;6.00;99.90;;;;;;5093714;28;20211;-77
2020/12/01 07:44:11;;;;;;;24.38;13.88;;;5.80;99.90;;;;;;5097276;28;20163;-78
2020/12/01 07:47:00;;;;;;;27.08;14.50;;;5.60;99.90;;;;;;5097334;28;20159;-77
2020/12/01 07:49:27;;;;;;;20.17;12.02;;;5.40;99.90;;;;;;5099000;28;20663;-77
2020/12/01 07:52:15;;;;;;;34.83;13.30;;;5.30;99.90;;;;;;5101574;28;20209;-77
2020/12/01 07:54:45;;;;;;;28.63;13.52;;;5.30;99.90;;;;;;5110670;28;20199;-79
2020/12/01 07:57:29;;;;;;;31.25;14.30;;;5.30;99.90;;;;;;5096568;28;20167;-78
2020/12/01 07:59:54;;;;;;;26.58;13.25;;;5.20;99.90;;;;;;5089334;28;20656;-79
2020/12/01 08:02:26;;;;;;;25.83;15.43;;;5.20;99.90;;;;;;5119891;28;20220;-79
2020/12/01 08:04:59;;;;;;;28.38;14.57;;;5.20;99.90;;;;;;5103949;28;20267;-79
2020/12/01 08:07:24;;;;;;;28.48;15.32;;;5.30;99.90;;;;;;5096644;28;20174;-78
2020/12/01 08:10:11;;;;;;;28.57;13.43;;;5.20;99.90;;;;;;5098165;28;20175;-78
2020/12/01 08:12:42;;;;;;;25.08;12.82;;;5.20;99.90;;;;;;5094127;28;20177;-77
2020/12/01 08:15:21;;;;;;;25.55;14.57;;;5.10;99.90;;;;;;5096750;28;20223;-79
2020/12/01 08:17:49;;;;;;;30.25;14.90;;;5.30;99.90;;;;;;5095935;28;20662;-79
2020/12/01 08:20:23;;;;;;;30.00;16.10;;;5.20;99.90;;;;;;5105323;28;20163;-79
2020/12/01 08:23:05;;;;;;;27.20;13.60;;;5.30;99.90;;;;;;5116274;28;20528;-78
2020/12/01 08:25:31;;;;;;;24.35;14.07;;;5.30;99.90;;;;;;5108466;28;20202;-77
2020/12/01 08:28:09;;;;;;;23.67;12.75;;;5.40;99.90;;;;;;5111511;28;20186;-77
2020/12/01 08:31:04;;;;;;;21.38;12.05;;;5.50;99.90;;;;;;5101882;28;20235;-77
2020/12/01 08:34:18;;;;;;;30.40;15.77;;;5.40;99.90;;;;;;5096451;28;20278;-78
2020/12/01 08:36:43;;;;;;;25.35;11.85;;;5.50;99.90;;;;;;5094106;28;20225;-78
2020/12/01 08:39:15;;;;;;;24.70;13.00;;;5.50;99.90;;;;;;5119083;28;20171;-77
2020/12/01 08:42:04;;;;;;;19.80;11.95;;;5.40;99.90;;;;;;5104804;28;20175;-78
2020/12/01 08:44:46;;;;;;;27.67;14.18;;;5.50;99.90;;;;;;5065273;28;20207;-78
2020/12/01 08:47:12;;;;;;;27.85;12.05;;;5.50;99.90;;;;;;5113342;28;20198;-78
2020/12/01 08:49:45;;;;;;;23.43;11.83;;;5.50;99.90;;;;;;5098854;28;20175;-78
2020/12/01 08:52:35;;;;;;;25.65;12.23;;;5.50;99.90;;;;;;5103991;28;20409;-79
2020/12/01 08:55:21;;;;;;;22.52;11.13;;;5.60;99.90;;;;;;5102552;28;20235;-78
2020/12/01 08:57:54;;;;;;;27.75;13.13;;;5.60;99.90;;;;;;5100096;28;20179;-77
2020/12/01 09:00:23;;;;;;;20.80;11.68;;;5.60;99.90;;;;;;5095913;28;20163;-77
2020/12/01 09:02:50;;;;;;;22.33;10.82;;;5.50;99.90;;;;;;5108601;28;20206;-78
2020/12/01 09:05:32;;;;;;;21.13;11.35;;;5.50;99.90;;;;;;5116824;28;20194;-78
2020/12/01 09:08:39;;;;;;;19.15;10.85;;;5.50;99.90;;;;;;5103349;28;20266;-77
2020/12/01 09:11:44;;;;;;;23.65;12.02;;;5.60;99.90;;;;;;5100979;28;20166;-78
2020/12/01 09:14:22;;;;;;;23.63;13.05;;;5.60;99.90;;;;;;5113468;28;20190;-77
2020/12/01 09:21:53;;;;;;;27.73;13.52;;;5.70;99.90;;;;;;5095537;28;20206;-77
2020/12/01 09:24:29;;;;;;;18.15;11.75;;;5.70;99.90;;;;;;5104351;28;20195;-76
2020/12/01 09:27:03;;;;;;;22.90;10.52;;;5.80;99.90;;;;;;5108040;28;20178;-77
2020/12/01 09:29:29;;;;;;;23.75;11.70;;;5.70;99.90;;;;;;5120503;28;20174;-77
2020/12/01 09:31:55;;;;;;;23.40;12.18;;;5.70;99.90;;;;;;5116117;28;20183;-76
2020/12/01 09:34:20;;;;;;;22.63;13.57;;;5.80;99.90;;;;;;5113266;28;20199;-77
2020/12/01 09:36:46;;;;;;;21.80;10.77;;;5.80;99.90;;;;;;5095088;28;20313;-77
2020/12/01 09:39:12;;;;;;;26.70;13.20;;;5.90;99.90;;;;;;5097137;28;20174;-75
2020/12/01 09:41:48;;;;;;;24.27;11.97;;;5.90;99.90;;;;;;5116619;28;20171;-79
2020/12/01 09:44:44;;;;;;;21.90;12.10;;;5.80;99.90;;;;;;5122199;28;20810;-78
2020/12/01 09:47:09;;;;;;;21.20;12.45;;;6.00;99.90;;;;;;5087654;28;20182;-79
2020/12/01 09:49:35;;;;;;;24.52;12.10;;;6.00;99.90;;;;;;5112744;28;20199;-78
2020/12/01 09:52:10;;;;;;;25.67;14.03;;;5.90;99.90;;;;;;5099041;28;20180;-79
2020/12/01 09:55:05;;;;;;;23.83;12.05;;;5.90;99.90;;;;;;5085393;28;20259;-78
2020/12/01 10:18:26;;;;;;;25.92;13.65;;;6.00;99.90;;;;;;5118938;28;20174;-78
2020/12/01 10:36:29;;;;;;;23.15;11.70;;;5.90;99.90;;;;;;5087080;28;20174;-78
2020/12/01 10:38:55;;;;;;;25.00;11.40;;;5.90;99.90;;;;;;5106279;28;20254;-79
2020/12/01 10:41:29;;;;;;;20.17;10.90;;;6.00;99.90;;;;;;5120629;28;20183;-79
2020/12/01 10:43:55;;;;;;;20.23;11.25;;;6.00;99.90;;;;;;5119220;28;20903;-79
2020/12/01 10:46:21;;;;;;;20.45;11.57;;;6.00;99.90;;;;;;5119464;28;20179;-79
2020/12/01 10:48:47;;;;;;;21.67;12.93;;;6.00;99.90;;;;;;5111058;28;20175;-80
2020/12/01 10:51:13;;;;;;;22.07;12.60;;;6.00;99.90;;;;;;5079672;28;20186;-78
2020/12/01 10:53:39;;;;;;;20.60;12.43;;;6.10;99.90;;;;;;5096992;28;20290;-79
2020/12/01 10:56:05;;;;;;;21.53;12.67;;;6.10;99.90;;;;;;5102995;28;20665;-79
2020/12/01 10:58:30;;;;;;;27.03;11.93;;;6.10;99.90;;;;;;5078932;28;20266;-76
2020/12/01 11:00:56;;;;;;;21.30;11.47;;;6.20;99.90;;;;;;5096780;28;20184;-78
2020/12/01 11:03:25;;;;;;;20.63;12.13;;;6.20;99.90;;;;;;5082365;28;20171;-78
2020/12/01 11:05:51;;;;;;;21.20;11.05;;;6.20;99.90;;;;;;5092756;28;20229;-78
2020/12/01 11:08:16;;;;;;;23.50;11.30;;;6.20;99.90;;;;;;5117349;28;20170;-79
2020/12/01 11:10:45;;;;;;;26.00;13.30;;;6.10;99.90;;;;;;5106342;28;20178;-79
2020/12/01 11:13:10;;;;;;;21.52;11.68;;;6.10;99.90;;;;;;5118189;28;20683;-78
2020/12/01 11:15:36;;;;;;;24.90;13.20;;;6.20;99.90;;;;;;5116443;28;20201;-78
2020/12/01 11:18:03;;;;;;;24.30;13.40;;;6.20;99.90;;;;;;5113447;28;20166;-78
2020/12/01 11:20:29;;;;;;;21.30;12.02;;;6.30;99.90;;;;;;5116445;28;20400;-78
2020/12/01 11:22:54;;;;;;;24.47;11.27;;;6.30;99.90;;;;;;5114978;28;20669;-79
2020/12/01 11:25:21;;;;;;;18.50;12.13;;;6.30;99.90;;;;;;5097135;28;20507;-77
2020/12/01 11:27:47;;;;;;;25.10;11.55;;;6.30;99.90;;;;;;5096088;28;20205;-78
2020/12/01 11:30:15;;;;;;;20.48;11.55;;;6.50;99.90;;;;;;5115260;28;20178;-77
2020/12/01 11:32:41;;;;;;;21.88;11.60;;;6.40;99.90;;;;;;5099151;28;20171;-77
2020/12/01 11:35:07;;;;;;;21.10;12.70;;;6.40;99.90;;;;;;5102634;28;20765;-78
2020/12/01 11:37:33;;;;;;;22.43;11.10;;;6.40;99.90;;;;;;5096358;28;20231;-78
2020/12/01 11:39:59;;;;;;;17.75;10.73;;;6.40;99.90;;;;;;5114056;28;20433;-78
2020/12/01 11:42:25;;;;;;;23.00;11.43;;;6.40;99.90;;;;;;5107494;28;20206;-78
2020/12/01 11:44:50;;;;;;;23.90;12.70;;;6.40;99.90;;;;;;5098120;28;20520;-77
2020/12/01 11:47:16;;;;;;;23.37;12.40;;;6.40;99.90;;;;;;5106821;28;20412;-77
2020/12/01 11:49:41;;;;;;;19.13;10.27;;;6.40;99.90;;;;;;5097719;28;20210;-77
2020/12/01 11:52:07;;;;;;;24.60;12.30;;;6.60;99.90;;;;;;5100905;28;20198;-78
2020/12/01 11:54:33;;;;;;;17.63;10.97;;;6.60;99.90;;;;;;5115937;28;20215;-77
2020/12/01 11:56:59;;;;;;;21.90;11.67;;;6.60;99.90;;;;;;5114065;28;20171;-78
2020/12/01 11:59:24;;;;;;;22.60;11.43;;;6.70;99.90;;;;;;5063451;28;20424;-78
2020/12/01 12:01:50;;;;;;;23.10;12.17;;;6.40;99.90;;;;;;5062293;28;20175;-78
2020/12/01 12:04:16;;;;;;;20.20;10.60;;;6.50;99.90;;;;;;5106627;28;20195;-78
2020/12/01 12:06:41;;;;;;;17.47;11.00;;;6.70;99.90;;;;;;5114277;28;20310;-78
2020/12/01 12:09:09;;;;;;;26.50;11.37;;;6.60;99.90;;;;;;5106106;28;20167;-77
2020/12/01 12:11:35;;;;;;;22.67;12.60;;;6.50;99.90;;;;;;5113129;28;20789;-78
2020/12/01 12:14:01;;;;;;;19.10;10.97;;;6.60;99.90;;;;;;5081109;28;20217;-77
2020/12/01 12:16:28;;;;;;;19.90;11.85;;;6.50;99.90;;;;;;5118093;28;20576;-79
2020/12/01 12:18:54;;;;;;;18.52;12.68;;;6.60;99.90;;;;;;5104552;28;20167;-78
2020/12/01 12:21:19;;;;;;;24.30;13.63;;;6.50;99.90;;;;;;5101168;28;20228;-78
2020/12/01 12:23:46;;;;;;;23.60;11.77;;;6.50;99.90;;;;;;5095554;28;20429;-77
2020/12/01 12:26:12;;;;;;;18.98;11.85;;;6.40;99.90;;;;;;5098629;28;20217;-76
2020/12/01 12:28:38;;;;;;;22.90;12.65;;;6.40;99.90;;;;;;5098471;28;20171;-78
2020/12/01 12:31:05;;;;;;;21.67;12.57;;;6.50;99.90;;;;;;5099249;28;20539;-77
2020/12/01 12:33:31;;;;;;;20.85;11.65;;;6.50;99.90;;;;;;5112374;28;20243;-78
2020/12/01 12:35:58;;;;;;;23.23;11.50;;;6.50;99.90;;;;;;5113049;28;20187;-78
2020/12/01 12:38:24;;;;;;;20.83;12.45;;;6.40;99.90;;;;;;5104741;28;20178;-77
2020/12/01 12:40:59;;;;;;;22.67;13.18;;;6.40;99.90;;;;;;5107308;28;20169;-75
2020/12/01 12:43:27;;;;;;;22.25;12.07;;;6.40;99.90;;;;;;5116354;28;20170;-76
2020/12/01 12:45:53;;;;;;;24.63;12.30;;;6.50;99.90;;;;;;5101590;28;20202;-77
2020/12/01 12:48:21;;;;;;;28.48;13.93;;;6.40;99.90;;;;;;5095955;28;20237;-76
2020/12/01 12:50:47;;;;;;;21.55;11.70;;;6.40;99.90;;;;;;5099202;28;20183;-76
2020/12/01 12:53:13;;;;;;;22.63;12.95;;;6.50;99.90;;;;;;5095466;28;20195;-77
2020/12/01 12:55:39;;;;;;;21.73;12.48;;;6.50;99.90;;;;;;5107260;28;20195;-78
2020/12/01 12:58:04;;;;;;;26.17;12.40;;;6.40;99.90;;;;;;5107738;28;20245;-79
2020/12/01 13:00:35;;;;;;;20.93;12.83;;;6.50;99.90;;;;;;5097682;28;20405;-77
2020/12/01 13:03:01;;;;;;;27.13;14.18;;;6.50;99.90;;;;;;5106076;28;20159;-79
2020/12/01 13:05:32;;;;;;;20.13;11.43;;;6.40;99.90;;;;;;5116929;28;20189;-78
2020/12/01 13:07:58;;;;;;;23.27;12.00;;;6.50;99.90;;;;;;5102656;28;20168;-79
2020/12/01 13:10:24;;;;;;;24.20;13.97;;;6.50;99.90;;;;;;5122118;28;20230;-79
2020/12/01 13:12:50;;;;;;;20.42;12.35;;;6.50;99.90;;;;;;5098786;28;20413;-78
2020/12/01 13:15:21;;;;;;;20.30;10.77;;;6.60;99.90;;;;;;5100186;28;20210;-79
2020/12/01 13:17:47;;;;;;;18.10;11.10;;;6.40;99.90;;;;;;5110388;28;20413;-80
2020/12/01 13:20:17;;;;;;;22.42;12.02;;;6.50;99.90;;;;;;5097781;28;20262;-79
2020/12/01 13:22:42;;;;;;;23.85;13.50;;;6.50;99.90;;;;;;5105645;28;20170;-79
2020/12/01 13:25:08;;;;;;;21.60;12.00;;;6.50;99.90;;;;;;5116799;28;20596;-78
2020/12/01 13:27:34;;;;;;;25.85;12.48;;;6.50;99.90;;;;;;5100425;28;20440;-79
2020/12/01 13:30:00;;;;;;;22.67;10.80;;;6.50;99.90;;;;;;5107940;28;20178;-78
2020/12/01 13:32:26;;;;;;;19.53;12.07;;;6.50;99.90;;;;;;5102438;28;20548;-79
2020/12/01 13:34:52;;;;;;;21.40;13.43;;;6.50;99.90;;;;;;5102159;28;20218;-79
2020/12/01 13:37:24;;;;;;;23.10;13.00;;;6.50;99.90;;;;;;5083189;28;20280;-77
2020/12/01 13:39:49;;;;;;;22.60;13.70;;;6.40;99.90;;;;;;5106053;28;20556;-77
2020/12/01 13:42:15;;;;;;;21.43;12.63;;;6.50;99.90;;;;;;5094540;28;20178;-78
2020/12/01 13:44:41;;;;;;;20.17;10.83;;;6.30;99.90;;;;;;5109184;28;20198;-77
2020/12/01 13:47:09;;;;;;;18.23;10.83;;;6.40;99.90;;;;;;5104337;28;20182;-77